sensor_id;sensor_type;location;lat;lon;timestamp;P1;durP1;ratioP1;P2;durP2;ratioP2
49826;SDS011;35715;51.570;6.036;2024-03-08T00:02:03;23.77;;;17.52;;
49826;SDS011;35715;51.570;6.036;2024-03-08T00:04:28;21.50;;;16.20;;
49826;SDS011;35715;51.570;6.036;2024-03-08T00:06:54;26.63;;;18.13;;
49826;SDS011;35715;51.570;6.036;2024-03-08T00:09:23;32.20;;;17.38;;
49826;SDS011;35715;51.570;6.036;2024-03-08T00:11:48;25.92;;;17.33;;
49826;SDS011;35715;51.570;6.036;2024-03-08T00:14:19;23.23;;;16.75;;
49826;SDS011;35715;51.570;6.036;2024-03-08T00:16:45;26.85;;;16.67;;
49826;SDS011;35715;51.570;6.036;2024-03-08T00:19:10;26.75;;;17.30;;
49826;SDS011;35715;51.570;6.036;2024-03-08T00:21:36;23.42;;;16.58;;
49826;SDS011;35715;51.570;6.036;2024-03-08T00:24:01;21.63;;;18.40;;
49826;SDS011;35715;51.570;6.036;2024-03-08T00:26:27;23.63;;;17.15;;
49826;SDS011;35715;51.570;6.036;2024-03-08T00:28:53;25.48;;;16.70;;
49826;SDS011;35715;51.570;6.036;2024-03-08T00:31:19;22.95;;;17.75;;
49826;SDS011;35715;51.570;6.036;2024-03-08T00:33:45;22.58;;;18.58;;
49826;SDS011;35715;51.570;6.036;2024-03-08T00:36:13;27.27;;;17.65;;
49826;SDS011;35715;51.570;6.036;2024-03-08T00:38:39;25.35;;;17.98;;
49826;SDS011;35715;51.570;6.036;2024-03-08T00:41:04;33.22;;;17.42;;
49826;SDS011;35715;51.570;6.036;2024-03-08T00:43:30;22.50;;;16.25;;
49826;SDS011;35715;51.570;6.036;2024-03-08T00:45:55;24.27;;;17.30;;
49826;SDS011;35715;51.570;6.036;2024-03-08T00:48:22;27.33;;;18.67;;
49826;SDS011;35715;51.570;6.036;2024-03-08T00:50:48;22.17;;;15.02;;
49826;SDS011;35715;51.570;6.036;2024-03-08T00:53:13;22.05;;;16.60;;
49826;SDS011;35715;51.570;6.036;2024-03-08T00:55:38;20.65;;;16.50;;
49826;SDS011;35715;51.570;6.036;2024-03-08T00:58:04;29.85;;;19.25;;
49826;SDS011;35715;51.570;6.036;2024-03-08T01:00:30;20.35;;;16.48;;
49826;SDS011;35715;51.570;6.036;2024-03-08T01:02:55;22.98;;;17.27;;
49826;SDS011;35715;51.570;6.036;2024-03-08T01:05:21;22.40;;;17.35;;
49826;SDS011;35715;51.570;6.036;2024-03-08T01:07:46;26.77;;;19.00;;
49826;SDS011;35715;51.570;6.036;2024-03-08T01:10:12;23.02;;;16.80;;
49826;SDS011;35715;51.570;6.036;2024-03-08T01:12:37;24.88;;;16.63;;
49826;SDS011;35715;51.570;6.036;2024-03-08T01:15:04;23.23;;;17.05;;
49826;SDS011;35715;51.570;6.036;2024-03-08T01:17:29;20.85;;;16.85;;
49826;SDS011;35715;51.570;6.036;2024-03-08T01:19:58;25.25;;;19.88;;
49826;SDS011;35715;51.570;6.036;2024-03-08T01:22:23;23.98;;;17.70;;
49826;SDS011;35715;51.570;6.036;2024-03-08T01:24:48;25.13;;;18.15;;
49826;SDS011;35715;51.570;6.036;2024-03-08T01:27:14;24.58;;;17.67;;
49826;SDS011;35715;51.570;6.036;2024-03-08T01:29:39;24.20;;;20.25;;
49826;SDS011;35715;51.570;6.036;2024-03-08T01:32:05;24.20;;;17.35;;
49826;SDS011;35715;51.570;6.036;2024-03-08T01:34:31;22.45;;;18.88;;
49826;SDS011;35715;51.570;6.036;2024-03-08T01:36:58;21.52;;;16.00;;
49826;SDS011;35715;51.570;6.036;2024-03-08T01:39:24;27.23;;;19.85;;
49826;SDS011;35715;51.570;6.036;2024-03-08T01:41:49;29.67;;;19.27;;
49826;SDS011;35715;51.570;6.036;2024-03-08T01:44:15;22.05;;;16.83;;
49826;SDS011;35715;51.570;6.036;2024-03-08T01:46:43;31.90;;;19.15;;
49826;SDS011;35715;51.570;6.036;2024-03-08T01:49:10;28.90;;;19.20;;
49826;SDS011;35715;51.570;6.036;2024-03-08T01:51:36;25.67;;;19.75;;
49826;SDS011;35715;51.570;6.036;2024-03-08T01:54:03;21.42;;;18.80;;
49826;SDS011;35715;51.570;6.036;2024-03-08T01:56:29;28.45;;;19.02;;
49826;SDS011;35715;51.570;6.036;2024-03-08T01:58:56;25.98;;;16.98;;
49826;SDS011;35715;51.570;6.036;2024-03-08T02:01:22;28.17;;;20.70;;
49826;SDS011;35715;51.570;6.036;2024-03-08T02:03:49;24.85;;;19.08;;
49826;SDS011;35715;51.570;6.036;2024-03-08T02:06:14;35.25;;;19.42;;
49826;SDS011;35715;51.570;6.036;2024-03-08T02:08:44;24.25;;;18.48;;
49826;SDS011;35715;51.570;6.036;2024-03-08T02:11:10;23.27;;;17.35;;
49826;SDS011;35715;51.570;6.036;2024-03-08T02:13:36;24.80;;;18.17;;
49826;SDS011;35715;51.570;6.036;2024-03-08T02:16:01;25.98;;;18.80;;
49826;SDS011;35715;51.570;6.036;2024-03-08T02:18:28;24.17;;;18.13;;
49826;SDS011;35715;51.570;6.036;2024-03-08T02:23:27;25.15;;;18.05;;
49826;SDS011;35715;51.570;6.036;2024-03-08T02:25:53;25.75;;;19.08;;
49826;SDS011;35715;51.570;6.036;2024-03-08T02:28:21;23.50;;;19.20;;
49826;SDS011;35715;51.570;6.036;2024-03-08T02:30:47;25.90;;;19.27;;
49826;SDS011;35715;51.570;6.036;2024-03-08T02:33:13;21.95;;;19.45;;
49826;SDS011;35715;51.570;6.036;2024-03-08T02:35:45;28.52;;;18.88;;
49826;SDS011;35715;51.570;6.036;2024-03-08T02:38:14;29.25;;;20.92;;
49826;SDS011;35715;51.570;6.036;2024-03-08T02:40:41;26.15;;;20.48;;
49826;SDS011;35715;51.570;6.036;2024-03-08T02:43:08;32.33;;;23.17;;
49826;SDS011;35715;51.570;6.036;2024-03-08T02:45:33;31.95;;;23.23;;
49826;SDS011;35715;51.570;6.036;2024-03-08T02:47:59;25.10;;;18.60;;
49826;SDS011;35715;51.570;6.036;2024-03-08T02:50:25;25.55;;;17.98;;
49826;SDS011;35715;51.570;6.036;2024-03-08T02:52:54;28.98;;;19.55;;
49826;SDS011;35715;51.570;6.036;2024-03-08T02:55:19;24.92;;;20.17;;
49826;SDS011;35715;51.570;6.036;2024-03-08T02:57:45;27.55;;;22.00;;
49826;SDS011;35715;51.570;6.036;2024-03-08T03:00:12;32.42;;;21.60;;
49826;SDS011;35715;51.570;6.036;2024-03-08T03:02:38;26.60;;;20.35;;
49826;SDS011;35715;51.570;6.036;2024-03-08T03:05:04;31.38;;;23.65;;
49826;SDS011;35715;51.570;6.036;2024-03-08T03:07:33;28.45;;;21.10;;
49826;SDS011;35715;51.570;6.036;2024-03-08T03:09:59;26.80;;;21.77;;
49826;SDS011;35715;51.570;6.036;2024-03-08T03:12:26;28.33;;;20.80;;
49826;SDS011;35715;51.570;6.036;2024-03-08T03:14:52;26.63;;;20.73;;
49826;SDS011;35715;51.570;6.036;2024-03-08T03:17:17;25.45;;;21.67;;
49826;SDS011;35715;51.570;6.036;2024-03-08T03:19:43;27.92;;;20.48;;
49826;SDS011;35715;51.570;6.036;2024-03-08T03:22:08;29.17;;;22.95;;
49826;SDS011;35715;51.570;6.036;2024-03-08T03:24:35;25.13;;;20.77;;
49826;SDS011;35715;51.570;6.036;2024-03-08T03:27:03;28.40;;;21.80;;
49826;SDS011;35715;51.570;6.036;2024-03-08T03:29:35;28.40;;;20.95;;
49826;SDS011;35715;51.570;6.036;2024-03-08T03:32:01;27.15;;;21.05;;
49826;SDS011;35715;51.570;6.036;2024-03-08T03:34:28;29.42;;;21.02;;
49826;SDS011;35715;51.570;6.036;2024-03-08T03:36:54;30.13;;;21.10;;
49826;SDS011;35715;51.570;6.036;2024-03-08T03:39:20;27.08;;;20.63;;
49826;SDS011;35715;51.570;6.036;2024-03-08T03:41:47;35.42;;;23.35;;
49826;SDS011;35715;51.570;6.036;2024-03-08T03:44:15;27.30;;;21.75;;
49826;SDS011;35715;51.570;6.036;2024-03-08T03:46:43;32.75;;;23.90;;
49826;SDS011;35715;51.570;6.036;2024-03-08T03:49:11;31.52;;;23.08;;
49826;SDS011;35715;51.570;6.036;2024-03-08T03:51:37;26.75;;;21.13;;
49826;SDS011;35715;51.570;6.036;2024-03-08T03:54:03;29.40;;;22.77;;
49826;SDS011;35715;51.570;6.036;2024-03-08T03:56:28;25.02;;;20.75;;
49826;SDS011;35715;51.570;6.036;2024-03-08T03:58:55;32.58;;;23.13;;
49826;SDS011;35715;51.570;6.036;2024-03-08T04:01:21;30.55;;;21.95;;
49826;SDS011;35715;51.570;6.036;2024-03-08T04:03:46;33.60;;;24.10;;
49826;SDS011;35715;51.570;6.036;2024-03-08T04:06:12;27.50;;;22.80;;
49826;SDS011;35715;51.570;6.036;2024-03-08T04:08:37;29.60;;;22.15;;
49826;SDS011;35715;51.570;6.036;2024-03-08T04:11:03;29.20;;;21.15;;
49826;SDS011;35715;51.570;6.036;2024-03-08T04:13:28;27.63;;;20.15;;
49826;SDS011;35715;51.570;6.036;2024-03-08T04:15:54;29.35;;;22.00;;
49826;SDS011;35715;51.570;6.036;2024-03-08T04:18:21;31.20;;;22.23;;
49826;SDS011;35715;51.570;6.036;2024-03-08T04:20:46;35.75;;;24.98;;
49826;SDS011;35715;51.570;6.036;2024-03-08T04:23:12;32.28;;;25.92;;
49826;SDS011;35715;51.570;6.036;2024-03-08T04:25:37;28.92;;;22.90;;
49826;SDS011;35715;51.570;6.036;2024-03-08T04:28:03;29.65;;;22.38;;
49826;SDS011;35715;51.570;6.036;2024-03-08T04:30:28;25.95;;;20.67;;
49826;SDS011;35715;51.570;6.036;2024-03-08T04:32:55;30.25;;;22.83;;
49826;SDS011;35715;51.570;6.036;2024-03-08T04:35:20;33.25;;;22.48;;
49826;SDS011;35715;51.570;6.036;2024-03-08T04:37:46;30.73;;;21.77;;
49826;SDS011;35715;51.570;6.036;2024-03-08T04:40:11;30.58;;;24.55;;
49826;SDS011;35715;51.570;6.036;2024-03-08T04:42:37;32.55;;;23.38;;
49826;SDS011;35715;51.570;6.036;2024-03-08T04:45:04;30.92;;;23.73;;
49826;SDS011;35715;51.570;6.036;2024-03-08T04:47:30;27.95;;;22.85;;
49826;SDS011;35715;51.570;6.036;2024-03-08T04:49:55;32.72;;;24.30;;
49826;SDS011;35715;51.570;6.036;2024-03-08T04:52:22;28.48;;;22.25;;
49826;SDS011;35715;51.570;6.036;2024-03-08T04:54:47;29.30;;;22.55;;
49826;SDS011;35715;51.570;6.036;2024-03-08T04:57:13;27.00;;;21.75;;
49826;SDS011;35715;51.570;6.036;2024-03-08T04:59:38;31.30;;;22.55;;
49826;SDS011;35715;51.570;6.036;2024-03-08T05:02:03;28.50;;;22.70;;
49826;SDS011;35715;51.570;6.036;2024-03-08T05:04:32;26.45;;;21.90;;
49826;SDS011;35715;51.570;6.036;2024-03-08T05:06:58;32.75;;;22.60;;
49826;SDS011;35715;51.570;6.036;2024-03-08T05:09:26;29.30;;;23.73;;
49826;SDS011;35715;51.570;6.036;2024-03-08T05:11:54;31.00;;;22.67;;
49826;SDS011;35715;51.570;6.036;2024-03-08T05:14:19;33.55;;;23.35;;
49826;SDS011;35715;51.570;6.036;2024-03-08T05:16:46;30.98;;;22.80;;
49826;SDS011;35715;51.570;6.036;2024-03-08T05:19:15;23.07;;;17.43;;
49826;SDS011;35715;51.570;6.036;2024-03-08T05:21:43;31.42;;;23.50;;
49826;SDS011;35715;51.570;6.036;2024-03-08T05:24:09;30.42;;;23.08;;
49826;SDS011;35715;51.570;6.036;2024-03-08T05:26:35;32.45;;;23.25;;
49826;SDS011;35715;51.570;6.036;2024-03-08T05:29:00;31.10;;;23.60;;
49826;SDS011;35715;51.570;6.036;2024-03-08T05:31:26;31.63;;;22.48;;
49826;SDS011;35715;51.570;6.036;2024-03-08T05:33:51;33.38;;;23.92;;
49826;SDS011;35715;51.570;6.036;2024-03-08T05:36:19;33.08;;;22.90;;
49826;SDS011;35715;51.570;6.036;2024-03-08T05:38:44;27.63;;;22.35;;
49826;SDS011;35715;51.570;6.036;2024-03-08T05:41:10;30.70;;;22.00;;
49826;SDS011;35715;51.570;6.036;2024-03-08T05:43:37;40.75;;;23.65;;
49826;SDS011;35715;51.570;6.036;2024-03-08T05:46:03;34.30;;;23.48;;
49826;SDS011;35715;51.570;6.036;2024-03-08T05:48:29;32.58;;;23.38;;
49826;SDS011;35715;51.570;6.036;2024-03-08T05:50:57;36.05;;;24.45;;
49826;SDS011;35715;51.570;6.036;2024-03-08T05:53:22;32.08;;;25.52;;
49826;SDS011;35715;51.570;6.036;2024-03-08T05:55:47;33.40;;;24.25;;
49826;SDS011;35715;51.570;6.036;2024-03-08T05:58:14;34.28;;;24.20;;
49826;SDS011;35715;51.570;6.036;2024-03-08T06:00:39;35.58;;;25.23;;
49826;SDS011;35715;51.570;6.036;2024-03-08T06:03:05;41.42;;;26.60;;
49826;SDS011;35715;51.570;6.036;2024-03-08T06:05:30;34.00;;;25.83;;
49826;SDS011;35715;51.570;6.036;2024-03-08T06:07:56;29.98;;;22.27;;
49826;SDS011;35715;51.570;6.036;2024-03-08T06:10:21;28.77;;;22.63;;
49826;SDS011;35715;51.570;6.036;2024-03-08T06:12:46;32.45;;;23.90;;
49826;SDS011;35715;51.570;6.036;2024-03-08T06:15:12;30.50;;;23.25;;
49826;SDS011;35715;51.570;6.036;2024-03-08T06:17:41;33.22;;;23.20;;
49826;SDS011;35715;51.570;6.036;2024-03-08T06:20:06;35.25;;;25.83;;
49826;SDS011;35715;51.570;6.036;2024-03-08T06:22:41;35.15;;;23.90;;
49826;SDS011;35715;51.570;6.036;2024-03-08T06:25:09;33.63;;;24.42;;
49826;SDS011;35715;51.570;6.036;2024-03-08T06:27:39;34.97;;;23.88;;
49826;SDS011;35715;51.570;6.036;2024-03-08T06:30:07;33.85;;;24.83;;
49826;SDS011;35715;51.570;6.036;2024-03-08T06:32:34;38.45;;;26.25;;
49826;SDS011;35715;51.570;6.036;2024-03-08T06:35:01;34.78;;;23.85;;
49826;SDS011;35715;51.570;6.036;2024-03-08T06:37:28;28.20;;;22.45;;
49826;SDS011;35715;51.570;6.036;2024-03-08T06:39:54;31.45;;;24.25;;
49826;SDS011;35715;51.570;6.036;2024-03-08T06:42:23;33.88;;;24.98;;
49826;SDS011;35715;51.570;6.036;2024-03-08T06:44:48;35.05;;;22.58;;
49826;SDS011;35715;51.570;6.036;2024-03-08T06:47:17;29.23;;;22.60;;
49826;SDS011;35715;51.570;6.036;2024-03-08T06:49:44;39.42;;;25.60;;
49826;SDS011;35715;51.570;6.036;2024-03-08T06:52:09;33.13;;;24.75;;
49826;SDS011;35715;51.570;6.036;2024-03-08T06:54:35;35.20;;;22.02;;
49826;SDS011;35715;51.570;6.036;2024-03-08T06:57:04;32.50;;;25.13;;
49826;SDS011;35715;51.570;6.036;2024-03-08T06:59:30;31.20;;;23.27;;
49826;SDS011;35715;51.570;6.036;2024-03-08T07:02:00;30.15;;;21.92;;
49826;SDS011;35715;51.570;6.036;2024-03-08T07:04:26;38.45;;;24.67;;
49826;SDS011;35715;51.570;6.036;2024-03-08T07:06:54;34.05;;;25.33;;
49826;SDS011;35715;51.570;6.036;2024-03-08T07:09:20;34.78;;;24.70;;
49826;SDS011;35715;51.570;6.036;2024-03-08T07:11:51;31.17;;;23.15;;
49826;SDS011;35715;51.570;6.036;2024-03-08T07:14:21;30.08;;;23.85;;
49826;SDS011;35715;51.570;6.036;2024-03-08T07:16:47;32.00;;;22.85;;
49826;SDS011;35715;51.570;6.036;2024-03-08T07:19:12;33.50;;;24.08;;
49826;SDS011;35715;51.570;6.036;2024-03-08T07:21:37;29.33;;;22.15;;
49826;SDS011;35715;51.570;6.036;2024-03-08T07:24:03;32.22;;;22.63;;
49826;SDS011;35715;51.570;6.036;2024-03-08T07:26:44;37.60;;;25.73;;
49826;SDS011;35715;51.570;6.036;2024-03-08T07:29:14;35.78;;;25.65;;
49826;SDS011;35715;51.570;6.036;2024-03-08T07:31:39;33.42;;;23.65;;
49826;SDS011;35715;51.570;6.036;2024-03-08T07:34:20;33.60;;;22.92;;
49826;SDS011;35715;51.570;6.036;2024-03-08T07:36:48;32.03;;;24.17;;
49826;SDS011;35715;51.570;6.036;2024-03-08T07:39:15;31.38;;;24.40;;
49826;SDS011;35715;51.570;6.036;2024-03-08T07:41:41;36.00;;;24.98;;
49826;SDS011;35715;51.570;6.036;2024-03-08T07:44:06;32.15;;;24.08;;
49826;SDS011;35715;51.570;6.036;2024-03-08T07:46:32;34.20;;;24.95;;
49826;SDS011;35715;51.570;6.036;2024-03-08T07:48:59;36.47;;;25.80;;
49826;SDS011;35715;51.570;6.036;2024-03-08T07:51:25;31.05;;;23.48;;
49826;SDS011;35715;51.570;6.036;2024-03-08T07:53:50;36.95;;;26.33;;
49826;SDS011;35715;51.570;6.036;2024-03-08T07:56:15;33.38;;;25.83;;
49826;SDS011;35715;51.570;6.036;2024-03-08T07:58:43;33.17;;;25.83;;
49826;SDS011;35715;51.570;6.036;2024-03-08T08:01:18;32.78;;;25.15;;
49826;SDS011;35715;51.570;6.036;2024-03-08T08:03:43;29.10;;;23.73;;
49826;SDS011;35715;51.570;6.036;2024-03-08T08:06:12;30.00;;;25.33;;
49826;SDS011;35715;51.570;6.036;2024-03-08T08:08:44;31.15;;;24.83;;
49826;SDS011;35715;51.570;6.036;2024-03-08T08:11:09;31.13;;;25.08;;
49826;SDS011;35715;51.570;6.036;2024-03-08T08:13:39;30.48;;;21.95;;
49826;SDS011;35715;51.570;6.036;2024-03-08T08:16:04;27.23;;;22.70;;
49826;SDS011;35715;51.570;6.036;2024-03-08T08:18:31;25.95;;;23.17;;
49826;SDS011;35715;51.570;6.036;2024-03-08T08:21:01;33.05;;;23.70;;
49826;SDS011;35715;51.570;6.036;2024-03-08T08:23:26;31.83;;;23.45;;
49826;SDS011;35715;51.570;6.036;2024-03-08T08:25:52;28.92;;;22.80;;
49826;SDS011;35715;51.570;6.036;2024-03-08T08:28:20;25.80;;;21.30;;
49826;SDS011;35715;51.570;6.036;2024-03-08T08:30:46;25.35;;;22.40;;
49826;SDS011;35715;51.570;6.036;2024-03-08T08:33:11;26.02;;;21.98;;
49826;SDS011;35715;51.570;6.036;2024-03-08T08:35:37;29.25;;;23.23;;
49826;SDS011;35715;51.570;6.036;2024-03-08T08:38:03;28.35;;;23.42;;
49826;SDS011;35715;51.570;6.036;2024-03-08T08:40:29;28.05;;;24.35;;
49826;SDS011;35715;51.570;6.036;2024-03-08T08:42:58;30.70;;;24.13;;
49826;SDS011;35715;51.570;6.036;2024-03-08T08:45:23;26.95;;;22.35;;
49826;SDS011;35715;51.570;6.036;2024-03-08T08:47:49;30.00;;;24.50;;
49826;SDS011;35715;51.570;6.036;2024-03-08T08:50:17;28.27;;;23.98;;
49826;SDS011;35715;51.570;6.036;2024-03-08T08:52:51;27.17;;;24.05;;
49826;SDS011;35715;51.570;6.036;2024-03-08T08:55:17;27.50;;;22.38;;
49826;SDS011;35715;51.570;6.036;2024-03-08T08:57:46;26.52;;;23.55;;
49826;SDS011;35715;51.570;6.036;2024-03-08T09:00:12;26.50;;;23.70;;
49826;SDS011;35715;51.570;6.036;2024-03-08T09:02:41;27.80;;;23.95;;
49826;SDS011;35715;51.570;6.036;2024-03-08T09:05:07;24.90;;;22.17;;
49826;SDS011;35715;51.570;6.036;2024-03-08T09:07:36;27.83;;;21.40;;
49826;SDS011;35715;51.570;6.036;2024-03-08T09:10:02;26.30;;;21.85;;
49826;SDS011;35715;51.570;6.036;2024-03-08T09:12:28;27.95;;;21.85;;
49826;SDS011;35715;51.570;6.036;2024-03-08T09:14:53;28.05;;;22.77;;
49826;SDS011;35715;51.570;6.036;2024-03-08T09:17:19;27.77;;;20.40;;
49826;SDS011;35715;51.570;6.036;2024-03-08T09:19:48;26.20;;;21.20;;
49826;SDS011;35715;51.570;6.036;2024-03-08T09:22:14;26.33;;;23.52;;
49826;SDS011;35715;51.570;6.036;2024-03-08T09:24:40;26.00;;;21.75;;
49826;SDS011;35715;51.570;6.036;2024-03-08T09:27:05;25.25;;;22.02;;
49826;SDS011;35715;51.570;6.036;2024-03-08T09:29:30;22.88;;;20.00;;
49826;SDS011;35715;51.570;6.036;2024-03-08T09:31:59;26.25;;;23.15;;
49826;SDS011;35715;51.570;6.036;2024-03-08T09:34:24;24.17;;;21.60;;
49826;SDS011;35715;51.570;6.036;2024-03-08T09:36:52;25.45;;;22.23;;
49826;SDS011;35715;51.570;6.036;2024-03-08T09:39:18;25.25;;;20.98;;
49826;SDS011;35715;51.570;6.036;2024-03-08T09:41:45;26.92;;;21.73;;
49826;SDS011;35715;51.570;6.036;2024-03-08T09:44:14;27.55;;;21.67;;
49826;SDS011;35715;51.570;6.036;2024-03-08T09:46:40;24.30;;;20.75;;
49826;SDS011;35715;51.570;6.036;2024-03-08T09:49:06;24.60;;;22.02;;
49826;SDS011;35715;51.570;6.036;2024-03-08T09:51:33;23.75;;;20.40;;
49826;SDS011;35715;51.570;6.036;2024-03-08T09:54:06;25.77;;;20.63;;
49826;SDS011;35715;51.570;6.036;2024-03-08T09:56:33;25.75;;;18.85;;
49826;SDS011;35715;51.570;6.036;2024-03-08T09:58:59;24.30;;;21.08;;
49826;SDS011;35715;51.570;6.036;2024-03-08T10:01:30;24.75;;;20.00;;
49826;SDS011;35715;51.570;6.036;2024-03-08T10:03:56;28.52;;;20.38;;
49826;SDS011;35715;51.570;6.036;2024-03-08T10:06:22;23.50;;;20.10;;
49826;SDS011;35715;51.570;6.036;2024-03-08T10:08:51;30.27;;;18.83;;
49826;SDS011;35715;51.570;6.036;2024-03-08T10:11:19;25.98;;;21.17;;
49826;SDS011;35715;51.570;6.036;2024-03-08T10:13:45;22.10;;;19.55;;
49826;SDS011;35715;51.570;6.036;2024-03-08T10:16:13;25.55;;;19.27;;
49826;SDS011;35715;51.570;6.036;2024-03-08T10:18:38;23.55;;;20.80;;
49826;SDS011;35715;51.570;6.036;2024-03-08T10:21:04;22.70;;;20.27;;
49826;SDS011;35715;51.570;6.036;2024-03-08T10:23:32;23.60;;;19.55;;
49826;SDS011;35715;51.570;6.036;2024-03-08T10:26:08;20.20;;;18.17;;
49826;SDS011;35715;51.570;6.036;2024-03-08T10:28:48;20.25;;;17.73;;
49826;SDS011;35715;51.570;6.036;2024-03-08T10:31:18;23.45;;;18.42;;
49826;SDS011;35715;51.570;6.036;2024-03-08T10:33:53;24.00;;;18.70;;
49826;SDS011;35715;51.570;6.036;2024-03-08T10:36:19;19.60;;;17.30;;
49826;SDS011;35715;51.570;6.036;2024-03-08T10:38:44;20.48;;;18.30;;
49826;SDS011;35715;51.570;6.036;2024-03-08T10:41:12;21.95;;;16.83;;
49826;SDS011;35715;51.570;6.036;2024-03-08T10:43:51;22.90;;;18.10;;
49826;SDS011;35715;51.570;6.036;2024-03-08T10:46:50;22.35;;;16.65;;
49826;SDS011;35715;51.570;6.036;2024-03-08T10:49:26;22.98;;;19.23;;
49826;SDS011;35715;51.570;6.036;2024-03-08T10:52:04;20.52;;;18.05;;
49826;SDS011;35715;51.570;6.036;2024-03-08T10:54:30;22.20;;;18.77;;
49826;SDS011;35715;51.570;6.036;2024-03-08T10:56:58;19.52;;;17.42;;
49826;SDS011;35715;51.570;6.036;2024-03-08T10:59:26;19.42;;;17.40;;
49826;SDS011;35715;51.570;6.036;2024-03-08T11:01:52;24.48;;;19.67;;
49826;SDS011;35715;51.570;6.036;2024-03-08T11:04:18;19.42;;;17.27;;
49826;SDS011;35715;51.570;6.036;2024-03-08T11:06:47;20.05;;;18.08;;
49826;SDS011;35715;51.570;6.036;2024-03-08T11:09:28;21.52;;;17.10;;
49826;SDS011;35715;51.570;6.036;2024-03-08T11:12:24;23.85;;;18.10;;
49826;SDS011;35715;51.570;6.036;2024-03-08T11:15:15;23.85;;;18.92;;
49826;SDS011;35715;51.570;6.036;2024-03-08T11:17:47;21.63;;;19.30;;
49826;SDS011;35715;51.570;6.036;2024-03-08T11:20:19;31.20;;;18.83;;
49826;SDS011;35715;51.570;6.036;2024-03-08T11:22:54;21.58;;;18.42;;
49826;SDS011;35715;51.570;6.036;2024-03-08T11:25:31;21.88;;;18.42;;
49826;SDS011;35715;51.570;6.036;2024-03-08T11:30:45;24.10;;;19.45;;
49826;SDS011;35715;51.570;6.036;2024-03-08T11:33:28;21.95;;;19.15;;
49826;SDS011;35715;51.570;6.036;2024-03-08T11:38:51;23.88;;;17.73;;
49826;SDS011;35715;51.570;6.036;2024-03-08T11:41:24;19.55;;;17.45;;
49826;SDS011;35715;51.570;6.036;2024-03-08T11:44:02;21.50;;;18.50;;
49826;SDS011;35715;51.570;6.036;2024-03-08T11:46:33;23.17;;;18.42;;
49826;SDS011;35715;51.570;6.036;2024-03-08T11:48:59;19.48;;;16.90;;
49826;SDS011;35715;51.570;6.036;2024-03-08T11:51:25;20.92;;;18.67;;
49826;SDS011;35715;51.570;6.036;2024-03-08T11:53:51;24.48;;;19.55;;
49826;SDS011;35715;51.570;6.036;2024-03-08T11:56:17;22.98;;;18.65;;
49826;SDS011;35715;51.570;6.036;2024-03-08T11:58:52;25.67;;;19.95;;
49826;SDS011;35715;51.570;6.036;2024-03-08T12:01:19;21.10;;;18.15;;
49826;SDS011;35715;51.570;6.036;2024-03-08T12:03:44;23.13;;;20.48;;
49826;SDS011;35715;51.570;6.036;2024-03-08T12:06:18;20.75;;;18.58;;
49826;SDS011;35715;51.570;6.036;2024-03-08T12:08:43;23.65;;;20.10;;
49826;SDS011;35715;51.570;6.036;2024-03-08T12:11:11;22.95;;;18.02;;
49826;SDS011;35715;51.570;6.036;2024-03-08T12:13:37;23.30;;;19.38;;
49826;SDS011;35715;51.570;6.036;2024-03-08T12:16:03;23.02;;;20.33;;
49826;SDS011;35715;51.570;6.036;2024-03-08T12:18:32;30.77;;;19.23;;
49826;SDS011;35715;51.570;6.036;2024-03-08T12:21:07;21.20;;;19.10;;
49826;SDS011;35715;51.570;6.036;2024-03-08T12:23:34;21.83;;;18.98;;
49826;SDS011;35715;51.570;6.036;2024-03-08T12:26:12;22.60;;;20.17;;
49826;SDS011;35715;51.570;6.036;2024-03-08T12:28:39;22.35;;;17.73;;
49826;SDS011;35715;51.570;6.036;2024-03-08T12:31:06;22.65;;;19.42;;
49826;SDS011;35715;51.570;6.036;2024-03-08T12:33:54;20.77;;;17.88;;
49826;SDS011;35715;51.570;6.036;2024-03-08T12:36:24;22.58;;;19.52;;
49826;SDS011;35715;51.570;6.036;2024-03-08T12:38:50;24.65;;;18.17;;
49826;SDS011;35715;51.570;6.036;2024-03-08T12:41:19;27.67;;;21.30;;
49826;SDS011;35715;51.570;6.036;2024-03-08T12:43:47;19.83;;;17.80;;
49826;SDS011;35715;51.570;6.036;2024-03-08T12:46:19;21.08;;;18.25;;
49826;SDS011;35715;51.570;6.036;2024-03-08T12:48:55;24.17;;;18.75;;
49826;SDS011;35715;51.570;6.036;2024-03-08T12:51:20;22.50;;;18.30;;
49826;SDS011;35715;51.570;6.036;2024-03-08T12:53:46;23.92;;;19.20;;
49826;SDS011;35715;51.570;6.036;2024-03-08T12:56:12;22.67;;;18.60;;
49826;SDS011;35715;51.570;6.036;2024-03-08T12:58:39;21.00;;;18.73;;
49826;SDS011;35715;51.570;6.036;2024-03-08T13:01:05;23.92;;;19.27;;
49826;SDS011;35715;51.570;6.036;2024-03-08T13:03:32;24.60;;;19.83;;
49826;SDS011;35715;51.570;6.036;2024-03-08T13:06:05;25.42;;;17.85;;
49826;SDS011;35715;51.570;6.036;2024-03-08T13:08:36;23.75;;;18.85;;
49826;SDS011;35715;51.570;6.036;2024-03-08T13:11:07;23.63;;;18.48;;
49826;SDS011;35715;51.570;6.036;2024-03-08T13:13:33;20.45;;;18.25;;
49826;SDS011;35715;51.570;6.036;2024-03-08T13:16:02;21.85;;;18.00;;
49826;SDS011;35715;51.570;6.036;2024-03-08T13:18:33;22.40;;;18.30;;
49826;SDS011;35715;51.570;6.036;2024-03-08T13:20:58;19.00;;;16.95;;
49826;SDS011;35715;51.570;6.036;2024-03-08T13:23:23;24.85;;;19.20;;
49826;SDS011;35715;51.570;6.036;2024-03-08T13:25:49;22.48;;;18.90;;
49826;SDS011;35715;51.570;6.036;2024-03-08T13:28:17;21.45;;;17.75;;
49826;SDS011;35715;51.570;6.036;2024-03-08T13:30:48;26.58;;;19.13;;
49826;SDS011;35715;51.570;6.036;2024-03-08T13:33:13;20.42;;;18.20;;
49826;SDS011;35715;51.570;6.036;2024-03-08T13:35:39;21.75;;;17.90;;
49826;SDS011;35715;51.570;6.036;2024-03-08T13:38:06;21.75;;;18.88;;
49826;SDS011;35715;51.570;6.036;2024-03-08T13:40:34;22.90;;;18.17;;
49826;SDS011;35715;51.570;6.036;2024-03-08T13:42:59;24.48;;;19.65;;
49826;SDS011;35715;51.570;6.036;2024-03-08T13:45:25;22.80;;;19.02;;
49826;SDS011;35715;51.570;6.036;2024-03-08T13:47:53;22.10;;;18.13;;
49826;SDS011;35715;51.570;6.036;2024-03-08T13:50:19;22.50;;;20.10;;
49826;SDS011;35715;51.570;6.036;2024-03-08T13:52:48;21.55;;;17.83;;
49826;SDS011;35715;51.570;6.036;2024-03-08T13:55:18;27.45;;;18.63;;
49826;SDS011;35715;51.570;6.036;2024-03-08T13:57:44;30.00;;;18.95;;
49826;SDS011;35715;51.570;6.036;2024-03-08T14:00:10;22.40;;;18.35;;
49826;SDS011;35715;51.570;6.036;2024-03-08T14:02:37;21.33;;;17.67;;
49826;SDS011;35715;51.570;6.036;2024-03-08T14:05:05;20.52;;;17.58;;
49826;SDS011;35715;51.570;6.036;2024-03-08T14:07:35;25.30;;;18.83;;
49826;SDS011;35715;51.570;6.036;2024-03-08T14:10:00;25.92;;;18.33;;
49826;SDS011;35715;51.570;6.036;2024-03-08T14:12:26;20.55;;;17.40;;
49826;SDS011;35715;51.570;6.036;2024-03-08T14:14:52;21.95;;;18.48;;
49826;SDS011;35715;51.570;6.036;2024-03-08T14:17:24;21.42;;;18.02;;
49826;SDS011;35715;51.570;6.036;2024-03-08T14:19:52;27.92;;;18.90;;
49826;SDS011;35715;51.570;6.036;2024-03-08T14:22:17;22.98;;;18.17;;
49826;SDS011;35715;51.570;6.036;2024-03-08T14:24:43;21.70;;;15.88;;
49826;SDS011;35715;51.570;6.036;2024-03-08T14:27:09;21.23;;;19.02;;
49826;SDS011;35715;51.570;6.036;2024-03-08T14:29:37;22.38;;;17.25;;
49826;SDS011;35715;51.570;6.036;2024-03-08T14:32:03;20.23;;;17.85;;